Time;durP1;ratioP1;P1;durP2;ratioP2;P2;SDS_P1;SDS_P2;PMS_P1;PMS_P2;Temp;Humidity;BMP_temperature;BMP_pressure;BME280_temperature;BME280_humidity;BME280_pressure;Samples;Min_cycle;Max_cycle;Signal;HPM_P1;HPM_P2
2023/10/30 00:00:53;;;;;;;8.35;3.90;;;13.10;99.90;;;13.35;90.34;99586.75;4826875;29;20050;-63
2023/10/30 00:03:22;;;;;;;7.47;3.85;;;13.00;99.90;;;13.28;89.97;99594.94;4826524;29;20059;-63
2023/10/30 00:05:52;;;;;;;7.40;4.15;;;13.00;99.90;;;13.23;90.04;99583.63;4826745;29;20122;-63
2023/10/30 00:08:21;;;;;;;8.20;4.20;;;13.00;99.90;;;13.21;90.39;99586.34;4826764;29;20412;-63
2023/10/30 00:10:50;;;;;;;10.82;4.20;;;13.00;99.90;;;13.22;90.39;99580.09;4826396;29;20103;-63
2023/10/30 00:13:18;;;;;;;5.90;3.67;;;13.00;99.90;;;13.14;90.36;99579.50;4826283;29;20054;-63
2023/10/30 00:15:47;;;;;;;8.18;4.13;;;12.90;99.90;;;13.16;90.56;99577.66;4819000;29;20469;-63
2023/10/30 00:18:15;;;;;;;6.15;3.75;;;12.90;99.90;;;13.13;90.44;99583.09;4826358;29;20072;-63
2023/10/30 00:20:43;;;;;;;7.40;4.07;;;12.90;99.90;;;13.08;90.73;99579.75;4826288;29;20058;-63
2023/10/30 00:23:13;;;;;;;7.20;3.78;;;12.80;99.90;;;13.04;90.97;99591.41;4826609;29;20054;-63
2023/10/30 00:25:41;;;;;;;5.00;3.50;;;12.80;99.90;;;13.03;91.21;99613.53;4826124;29;20060;-63
2023/10/30 00:28:10;;;;;;;6.22;3.50;;;12.80;99.90;;;13.09;91.33;99612.44;4812096;29;20051;-63
2023/10/30 00:30:38;;;;;;;8.65;3.40;;;12.80;99.90;;;13.07;91.30;99603.69;4822435;29;20047;-63
2023/10/30 00:33:06;;;;;;;5.22;3.70;;;12.80;99.90;;;13.09;91.24;99613.31;4810057;29;20061;-63
2023/10/30 00:35:35;;;;;;;7.57;3.72;;;12.80;99.90;;;13.09;91.40;99626.59;4826277;29;20047;-64
2023/10/30 00:38:04;;;;;;;12.88;3.95;;;12.80;99.90;;;13.13;91.91;99622.03;4826038;29;20450;-63
2023/10/30 00:40:34;;;;;;;10.88;4.35;;;12.80;99.90;;;13.03;92.36;99629.47;4825945;29;20070;-63
2023/10/30 00:43:02;;;;;;;7.60;4.25;;;12.80;99.90;;;13.03;92.75;99633.88;4826063;29;20504;-63
2023/10/30 00:45:31;;;;;;;11.10;4.60;;;12.80;99.90;;;12.97;93.72;99636.75;4826112;29;20099;-63
2023/10/30 00:48:00;;;;;;;9.45;4.63;;;12.70;99.90;;;12.99;93.93;99641.06;4825887;29;20587;-63
2023/10/30 00:50:32;;;;;;;10.80;4.30;;;12.70;99.90;;;13.10;93.75;99636.31;4826018;29;20131;-63
2023/10/30 00:53:00;;;;;;;10.82;4.38;;;12.80;99.90;;;12.98;93.87;99633.16;4812377;29;20481;-63
2023/10/30 00:55:29;;;;;;;12.88;5.32;;;12.80;99.90;;;13.12;93.91;99634.47;4822754;29;20057;-63
2023/10/30 00:57:59;;;;;;;11.40;5.07;;;12.80;99.90;;;13.21;93.57;99635.94;4825545;29;20050;-63
2023/10/30 01:00:27;;;;;;;12.30;5.50;;;12.90;99.90;;;13.15;93.25;99639.66;4825190;29;20059;-63
2023/10/30 01:02:56;;;;;;;11.27;4.95;;;12.90;99.90;;;13.08;93.64;99627.53;4825554;29;20543;-63
2023/10/30 01:05:25;;;;;;;13.70;4.88;;;12.90;99.90;;;13.15;93.85;99637.00;4825858;29;20046;-63
2023/10/30 01:07:54;;;;;;;12.32;4.88;;;12.80;99.90;;;13.19;93.66;99632.47;4825836;29;20046;-63
2023/10/30 01:10:22;;;;;;;15.23;5.28;;;12.90;99.90;;;13.19;93.94;99640.41;4825898;29;20069;-63
2023/10/30 01:12:50;;;;;;;14.60;5.03;;;12.90;99.90;;;13.22;93.61;99635.03;4809305;29;20081;-63
2023/10/30 01:15:20;;;;;;;18.63;5.20;;;12.90;99.90;;;13.24;93.35;99625.22;4825727;29;20050;-63
2023/10/30 01:17:55;;;;;;;14.07;5.07;;;13.00;99.90;;;13.13;93.31;99640.63;4825647;29;20170;-63
2023/10/30 01:20:23;;;;;;;16.17;5.25;;;12.90;99.90;;;13.13;93.74;99638.84;4825888;29;20078;-63
2023/10/30 01:22:51;;;;;;;16.55;5.53;;;12.90;99.90;;;13.20;93.56;99647.50;4825643;29;20046;-64
2023/10/30 01:25:20;;;;;;;14.05;4.82;;;12.90;99.90;;;13.17;93.78;99632.53;4825540;29;20054;-65
2023/10/30 01:27:48;;;;;;;15.68;4.80;;;12.90;99.90;;;13.14;93.47;99648.53;4825291;29;20073;-63
2023/10/30 01:30:17;;;;;;;10.55;4.85;;;12.90;99.90;;;13.15;93.70;99639.66;4825330;29;20549;-63
2023/10/30 01:32:46;;;;;;;14.98;5.55;;;12.90;99.90;;;13.12;93.65;99638.91;4825341;29;20056;-63
2023/10/30 01:35:15;;;;;;;14.85;4.43;;;12.90;99.90;;;13.07;94.12;99635.53;4825720;29;20061;-64
2023/10/30 01:37:43;;;;;;;14.30;5.05;;;12.80;99.90;;;13.04;94.54;99635.66;4825355;29;20107;-66
2023/10/30 01:40:12;;;;;;;12.85;4.90;;;12.80;99.90;;;13.03;94.42;99640.09;4809032;29;20533;-67
2023/10/30 01:42:41;;;;;;;16.98;5.30;;;12.80;99.90;;;13.02;94.37;99637.44;4812758;29;20413;-64
2023/10/30 01:45:10;;;;;;;13.93;4.43;;;12.70;99.90;;;12.96;94.80;99646.50;4825400;29;20428;-64
2023/10/30 01:47:39;;;;;;;27.13;5.28;;;12.70;99.90;;;12.87;94.86;99641.50;4825312;29;20141;-64
2023/10/30 01:50:14;;;;;;;15.85;5.10;;;12.60;99.90;;;12.89;95.48;99650.25;4825193;29;20042;-63
2023/10/30 01:52:43;;;;;;;14.27;4.93;;;12.60;99.90;;;12.89;95.15;99649.41;4824784;29;20051;-64
2023/10/30 01:55:13;;;;;;;17.05;4.93;;;12.60;99.90;;;12.83;95.38;99650.47;4825145;29;20517;-63
2023/10/30 01:57:42;;;;;;;12.90;5.00;;;12.60;99.90;;;12.87;95.18;99657.44;4825080;29;20050;-64
2023/10/30 02:00:14;;;;;;;12.95;4.68;;;12.60;99.90;;;12.83;95.06;99647.84;4810692;29;20145;-63
2023/10/30 02:02:43;;;;;;;13.07;5.10;;;12.60;99.90;;;12.86;94.98;99644.19;4808653;29;20490;-63
2023/10/30 02:05:14;;;;;;;17.88;4.88;;;12.60;99.90;;;12.83;94.78;99647.84;4820688;29;20058;-64
2023/10/30 02:07:42;;;;;;;12.10;4.60;;;12.60;99.90;;;12.84;94.80;99664.59;4821746;29;20130;-64
2023/10/30 02:10:12;;;;;;;16.27;4.95;;;12.60;99.90;;;12.86;94.56;99663.63;4824369;29;20054;-63
2023/10/30 02:12:43;;;;;;;11.20;4.57;;;12.60;99.90;;;12.82;94.65;99656.69;4824835;29;20085;-63
2023/10/30 02:15:13;;;;;;;13.70;4.85;;;12.60;99.90;;;12.83;94.64;99666.41;4813080;29;20047;-64
2023/10/30 02:17:42;;;;;;;15.30;5.32;;;12.60;99.90;;;12.81;94.59;99668.25;4825091;29;20494;-63
2023/10/30 02:20:13;;;;;;;13.75;4.55;;;12.50;99.90;;;12.78;94.63;99676.28;4824901;29;20524;-63
2023/10/30 02:22:41;;;;;;;15.52;4.55;;;12.60;99.90;;;12.77;94.77;99671.91;4824819;29;20507;-63
2023/10/30 02:25:10;;;;;;;14.90;4.95;;;12.50;99.90;;;12.75;95.10;99660.47;4824456;29;20434;-63
2023/10/30 02:27:39;;;;;;;15.90;4.97;;;12.50;99.90;;;12.73;95.31;99677.34;4824463;29;20564;-63
2023/10/30 02:30:12;;;;;;;9.53;4.30;;;12.50;99.90;;;12.72;95.53;99673.81;4824618;29;20055;-63
2023/10/30 02:32:42;;;;;;;16.27;5.15;;;12.50;99.90;;;12.72;95.25;99676.47;4808093;29;20400;-63
2023/10/30 02:35:13;;;;;;;14.05;4.78;;;12.50;99.90;;;12.77;95.12;99682.53;4824296;29;20050;-63
2023/10/30 02:37:41;;;;;;;15.02;4.68;;;12.50;99.90;;;12.74;95.05;99687.06;4824584;29;20050;-63
2023/10/30 02:40:11;;;;;;;16.63;5.13;;;12.50;99.90;;;12.81;95.32;99696.56;4824757;29;20170;-64
2023/10/30 02:42:41;;;;;;;14.18;4.63;;;12.50;99.90;;;12.82;95.00;99683.22;4810138;29;20077;-63
2023/10/30 02:45:10;;;;;;;;;;;12.50;99.90;;;12.79;95.08;99688.66;4824629;29;20106;-63
2023/10/30 02:47:39;;;;;;;17.88;4.68;;;12.50;99.90;;;12.79;95.19;99691.31;4824633;29;20428;-63
2023/10/30 02:50:10;;;;;;;13.18;5.10;;;12.50;99.90;;;12.82;95.35;99683.22;4807843;29;20047;-64
2023/10/30 02:52:38;;;;;;;11.90;4.47;;;12.60;99.90;;;12.87;94.83;99696.34;4824389;29;20110;-63
2023/10/30 02:55:09;;;;;;;13.07;5.05;;;12.60;99.90;;;12.84;94.88;99699.09;4824213;29;20378;-63
2023/10/30 02:57:37;;;;;;;12.95;4.40;;;12.60;99.90;;;12.92;94.67;99694.41;4824308;29;20050;-63
2023/10/30 03:00:09;;;;;;;13.48;4.38;;;12.60;99.90;;;12.90;94.55;99696.25;4807840;29;20142;-63
2023/10/30 03:02:37;;;;;;;16.65;4.63;;;12.60;99.90;;;12.98;94.15;99700.41;4824205;29;20050;-63
2023/10/30 03:05:07;;;;;;;11.38;4.47;;;12.70;99.90;;;12.91;94.22;99685.56;4823936;29;20061;-63
2023/10/30 03:07:35;;;;;;;16.90;4.80;;;12.70;99.90;;;12.81;94.46;99686.81;4809651;29;20068;-63
2023/10/30 03:10:04;;;;;;;14.02;4.93;;;12.60;99.90;;;12.90;94.62;99691.81;4824113;29;20122;-63
2023/10/30 03:12:33;;;;;;;15.20;5.57;;;12.70;99.90;;;12.90;94.31;99691.81;4823868;29;20054;-64
2023/10/30 03:15:01;;;;;;;13.13;5.25;;;12.70;99.90;;;12.81;94.80;99694.78;4807563;29;20141;-63
2023/10/30 03:17:31;;;;;;;15.75;4.80;;;12.60;99.90;;;12.91;94.99;99698.00;4824030;29;20127;-63
2023/10/30 03:20:00;;;;;;;10.63;4.45;;;12.60;99.90;;;12.94;94.59;99693.44;4824059;29;20055;-63
2023/10/30 03:22:28;;;;;;;12.00;4.72;;;12.70;99.90;;;12.84;94.29;99696.44;4825328;29;20051;-63
2023/10/30 03:24:57;;;;;;;16.60;4.65;;;12.60;99.90;;;12.92;94.52;99700.59;4827557;29;20053;-63
2023/10/30 03:27:25;;;;;;;13.68;4.68;;;12.60;99.90;;;12.96;94.52;99696.94;4827705;29;20059;-63
2023/10/30 03:29:53;;;;;;;14.38;4.38;;;12.60;99.90;;;12.94;94.58;99698.75;4827601;29;20116;-64
2023/10/30 03:32:22;;;;;;;11.95;4.55;;;12.70;99.90;;;13.02;94.32;99695.84;4827107;29;20085;-63
2023/10/30 03:34:52;;;;;;;16.02;4.72;;;12.70;99.90;;;12.98;94.17;99691.56;4827313;29;20509;-63
2023/10/30 03:37:20;;;;;;;11.10;4.50;;;12.70;99.90;;;12.99;94.09;99683.53;4827749;29;20051;-63
2023/10/30 03:39:49;;;;;;;13.30;5.07;;;12.70;99.90;;;12.98;94.22;99681.81;4827027;29;20122;-64
2023/10/30 03:42:18;;;;;;;16.40;5.10;;;12.70;99.90;;;12.96;94.29;99686.31;4827325;29;20050;-63
2023/10/30 03:44:47;;;;;;;17.52;4.93;;;12.70;99.90;;;12.98;94.45;99684.47;4826932;29;20046;-64
2023/10/30 03:47:17;;;;;;;;;;;12.70;99.90;;;12.98;94.27;99692.44;4827978;29;20039;-63
2023/10/30 03:49:46;;;;;;;17.08;5.15;;;12.70;99.90;;;12.91;94.65;99693.53;4796778;29;19925;-64
2023/10/30 03:52:16;;;;;;;24.73;5.13;;;12.70;99.90;;;12.93;95.12;99704.97;4827049;29;20137;-64
2023/10/30 03:54:45;;;;;;;14.07;5.13;;;12.70;99.90;;;12.90;95.22;99697.13;4826673;29;20519;-63
2023/10/30 03:57:13;;;;;;;19.63;5.63;;;12.60;99.90;;;12.94;95.16;99697.88;4826682;29;20295;-64
2023/10/30 03:59:42;;;;;;;16.92;4.97;;;12.60;99.90;;;12.87;95.37;99699.88;4826610;29;20062;-65
2023/10/30 04:02:11;;;;;;;14.77;5.25;;;12.60;99.90;;;12.90;95.71;99696.25;4827168;29;20050;-64
2023/10/30 04:04:39;;;;;;;12.25;4.68;;;12.60;99.90;;;12.26;95.66;99600.19;4826742;29;20050;-64
2023/10/30 04:07:08;;;;;;;16.88;5.28;;;12.60;99.90;;;12.91;95.63;99709.47;4826744;29;20446;-64
2023/10/30 04:09:37;;;;;;;17.70;5.22;;;12.60;99.90;;;12.82;96.24;99700.94;4826493;29;20054;-65
2023/10/30 04:12:07;;;;;;;15.93;5.00;;;12.60;99.90;;;12.77;96.33;99692.25;4826505;29;20063;-64
2023/10/30 04:14:35;;;;;;;16.17;5.30;;;12.60;99.90;;;12.79;96.57;99693.06;4826275;29;20394;-63
2023/10/30 04:17:04;;;;;;;15.70;5.10;;;12.60;99.90;;;12.65;96.91;99683.78;4826487;29;20052;-64
2023/10/30 04:19:33;;;;;;;20.23;4.93;;;12.50;99.90;;;12.70;97.22;99679.19;4810346;29;20137;-63
2023/10/30 04:22:02;;;;;;;16.27;4.97;;;12.50;99.90;;;12.63;97.89;99695.34;4826487;29;20066;-64
2023/10/30 04:24:31;;;;;;;19.20;4.75;;;12.40;99.90;;;12.66;98.07;99698.78;4826336;29;20404;-64
2023/10/30 04:27:01;;;;;;;18.27;5.70;;;12.40;99.90;;;12.66;98.02;99687.28;4826504;29;20061;-64
2023/10/30 04:29:30;;;;;;;12.40;5.00;;;12.40;99.90;;;12.65;98.13;99682.91;4814021;29;20485;-64
2023/10/30 04:31:58;;;;;;;14.55;5.00;;;12.40;99.90;;;12.63;98.36;99692.69;4811315;29;20115;-64
2023/10/30 04:34:27;;;;;;;17.33;5.57;;;12.40;99.90;;;12.51;99.05;99679.81;4825855;29;20042;-63
2023/10/30 04:36:55;;;;;;;16.50;5.07;;;12.30;99.90;;;12.55;98.83;99679.69;4826049;29;20511;-63
2023/10/30 04:39:24;;;;;;;18.20;5.38;;;12.40;99.90;;;12.56;99.29;99692.00;4826634;29;20051;-63
2023/10/30 04:41:53;;;;;;;15.65;5.28;;;12.30;99.90;;;12.58;99.28;99684.88;4825991;29;20054;-63
2023/10/30 04:44:23;;;;;;;16.20;4.95;;;12.40;99.90;;;12.69;98.75;99692.50;4825962;29;20257;-63
2023/10/30 04:46:52;;;;;;;14.70;4.90;;;12.40;99.90;;;12.63;98.83;99688.28;4826364;29;20046;-64
2023/10/30 04:49:20;;;;;;;18.63;5.10;;;12.40;99.90;;;12.64;99.21;99697.06;4825866;29;20301;-63
2023/10/30 04:51:48;;;;;;;20.58;5.50;;;12.40;99.90;;;12.59;99.42;99701.66;4825948;29;20560;-64
2023/10/30 04:54:17;;;;;;;21.42;4.78;;;12.40;99.90;;;12.63;99.59;99698.00;4825931;29;20386;-63
2023/10/30 04:56:45;;;;;;;15.30;5.40;;;12.40;99.90;;;12.62;99.41;99698.91;4825770;29;20054;-64
2023/10/30 04:59:13;;;;;;;17.83;5.25;;;12.40;99.90;;;12.66;99.34;99692.59;4826028;29;20111;-63
2023/10/30 05:01:43;;;;;;;17.20;5.28;;;12.40;99.90;;;12.48;100.00;99698.50;4825640;29;20133;-63
2023/10/30 05:04:11;;;;;;;20.20;5.57;;;12.40;99.90;;;12.51;100.00;99693.06;4825968;29;20047;-64
2023/10/30 05:06:40;;;;;;;19.15;5.45;;;12.30;99.90;;;12.52;100.00;99700.13;4826158;29;20096;-63
2023/10/30 05:09:09;;;;;;;16.15;5.03;;;12.30;99.90;;;12.52;100.00;99706.28;4825921;29;20046;-64
2023/10/30 05:11:39;;;;;;;16.92;5.25;;;12.30;99.90;;;12.50;100.00;99691.34;4825522;29;20089;-64
2023/10/30 05:14:07;;;;;;;17.95;5.35;;;12.30;99.90;;;12.56;100.00;99688.50;4825492;29;20054;-64
2023/10/30 05:16:36;;;;;;;15.38;4.95;;;12.40;99.90;;;12.60;100.00;99698.13;4825379;29;20057;-64
2023/10/30 05:19:06;;;;;;;16.15;5.53;;;12.40;99.90;;;12.60;100.00;99690.16;4825375;29;20138;-63
2023/10/30 05:21:34;;;;;;;13.53;5.07;;;12.40;99.90;;;12.59;100.00;99683.09;4825619;29;20500;-63
2023/10/30 05:24:03;;;;;;;22.10;5.72;;;12.40;99.90;;;12.65;100.00;99698.81;4825318;29;20050;-64
2023/10/30 05:26:31;;;;;;;19.33;5.70;;;12.40;99.90;;;12.65;100.00;99693.53;4825585;29;20050;-63
2023/10/30 05:29:00;;;;;;;20.42;6.43;;;12.40;99.90;;;12.63;100.00;99684.75;4809171;29;20158;-63
2023/10/30 05:31:28;;;;;;;20.80;6.20;;;12.40;99.90;;;12.66;100.00;99684.63;4809105;29;20458;-63
2023/10/30 05:33:56;;;;;;;20.80;5.57;;;12.40;99.90;;;12.63;100.00;99674.13;4825164;29;20489;-63
2023/10/30 05:36:26;;;;;;;23.02;6.22;;;12.40;99.90;;;12.61;100.00;99683.91;4825130;29;20208;-64
2023/10/30 05:38:54;;;;;;;14.93;5.10;;;12.40;99.90;;;12.70;100.00;99689.81;4825260;29;20080;-63
2023/10/30 05:41:23;;;;;;;15.18;5.53;;;12.40;99.90;;;12.68;100.00;99685.44;4825375;29;20082;-64
2023/10/30 05:43:51;;;;;;;20.63;5.75;;;12.40;99.90;;;12.68;100.00;99693.41;4825023;29;20089;-63
2023/10/30 05:46:20;;;;;;;18.70;5.95;;;12.40;99.90;;;12.55;100.00;99666.41;4810885;29;20051;-64
2023/10/30 05:48:48;;;;;;;15.40;5.40;;;12.50;99.90;;;12.76;100.00;99691.38;4825239;29;20050;-64
2023/10/30 05:51:16;;;;;;;16.40;5.18;;;12.50;99.90;;;12.82;100.00;99691.19;4825045;29;20054;-63
2023/10/30 05:53:47;;;;;;;14.88;5.50;;;12.50;99.90;;;12.85;100.00;99692.88;4824849;29;20050;-64
2023/10/30 05:56:15;;;;;;;18.92;6.15;;;12.60;99.90;;;12.81;100.00;99697.44;4824783;29;20046;-64
2023/10/30 05:58:44;;;;;;;18.50;5.90;;;12.60;99.90;;;12.89;100.00;99710.44;4825076;29;20137;-64
2023/10/30 06:01:12;;;;;;;18.73;6.05;;;12.60;99.90;;;12.90;100.00;99702.44;4824801;29;20493;-63
2023/10/30 06:03:40;;;;;;;13.68;5.30;;;12.60;99.90;;;12.92;100.00;99697.94;4808552;29;20569;-64
2023/10/30 06:06:09;;;;;;;17.85;5.20;;;12.60;99.90;;;12.89;100.00;99702.50;4824913;29;20050;-64
2023/10/30 06:08:37;;;;;;;16.95;5.30;;;12.60;99.90;;;12.89;100.00;99700.69;4816486;29;20432;-63
2023/10/30 06:11:07;;;;;;;16.67;5.57;;;12.60;99.90;;;12.87;100.00;99710.50;4824810;29;20054;-64
2023/10/30 06:13:36;;;;;;;16.75;5.78;;;12.60;99.90;;;12.90;100.00;99712.16;4811321;29;20129;-64
2023/10/30 06:16:05;;;;;;;16.70;5.25;;;12.60;99.90;;;12.94;100.00;99717.34;4824492;29;20074;-64
2023/10/30 06:18:34;;;;;;;15.75;5.55;;;12.60;99.90;;;13.02;100.00;99717.97;4824515;29;20061;-65
2023/10/30 06:21:03;;;;;;;17.75;5.53;;;12.70;99.90;;;13.03;100.00;99717.06;4824397;29;20053;-64
2023/10/30 06:23:31;;;;;;;19.52;6.28;;;12.70;99.90;;;13.07;100.00;99729.31;4824474;29;20103;-65
2023/10/30 06:25:59;;;;;;;20.10;5.95;;;12.80;99.90;;;12.99;100.00;99720.69;4824349;29;20058;-64
2023/10/30 06:28:29;;;;;;;20.90;6.57;;;12.70;99.90;;;13.04;100.00;99725.91;4824267;29;20050;-64
2023/10/30 06:30:57;;;;;;;18.17;5.60;;;12.70;99.90;;;13.09;100.00;99708.03;4824487;29;20078;-64
2023/10/30 06:33:26;;;;;;;21.63;6.00;;;12.80;99.90;;;13.15;100.00;99721.09;4824436;29;20509;-63
2023/10/30 06:35:58;;;;;;;23.25;7.03;;;12.90;99.90;;;13.14;100.00;99712.25;4824223;29;20115;-64
2023/10/30 06:38:27;;;;;;;17.75;5.70;;;12.90;99.90;;;13.13;100.00;99715.84;4805697;29;20497;-64
2023/10/30 06:40:55;;;;;;;21.45;5.85;;;12.90;99.90;;;13.20;100.00;99727.13;4814250;29;20054;-64
2023/10/30 06:43:24;;;;;;;17.05;6.20;;;12.90;99.90;;;13.22;100.00;99727.97;4824154;29;20046;-64
2023/10/30 06:46:00;;;;;;;13.13;5.32;;;12.90;99.90;;;13.12;100.00;99729.19;4809587;29;20070;-64
2023/10/30 06:48:29;;;;;;;19.80;6.28;;;12.90;99.90;;;13.04;100.00;99736.53;4824098;29;20540;-64
2023/10/30 06:50:57;;;;;;;20.83;5.90;;;12.80;99.90;;;12.87;100.00;99736.16;4824230;29;20057;-64
2023/10/30 06:53:26;;;;;;;18.13;5.97;;;12.70;99.90;;;12.84;100.00;99699.97;4824175;29;20050;-63
2023/10/30 06:55:54;;;;;;;22.30;6.40;;;12.70;99.90;;;13.04;100.00;99729.44;4823835;29;20497;-63
2023/10/30 06:58:23;;;;;;;18.13;5.85;;;12.80;99.90;;;13.16;100.00;99731.66;4824261;29;20077;-63
2023/10/30 07:00:51;;;;;;;15.32;5.75;;;12.90;99.90;;;13.11;100.00;99736.25;4823887;29;20520;-63
2023/10/30 07:03:21;;;;;;;15.10;5.68;;;12.90;99.90;;;13.11;100.00;99738.91;4823871;29;20112;-63
2023/10/30 07:05:50;;;;;;;21.00;6.13;;;13.00;99.90;;;13.28;100.00;99741.00;4824138;29;20078;-64
2023/10/30 07:08:19;;;;;;;22.25;6.38;;;13.10;99.90;;;13.46;100.00;99751.91;4823731;29;20523;-63
2023/10/30 07:10:47;;;;;;;23.05;6.10;;;13.20;99.90;;;13.57;100.00;99755.03;4823496;29;20049;-63
2023/10/30 07:13:15;;;;;;;18.65;6.50;;;13.30;99.90;;;13.79;100.00;99770.25;4823752;29;20048;-63
2023/10/30 07:15:44;;;;;;;21.80;6.35;;;13.50;99.90;;;13.94;100.00;99775.00;4823598;29;20054;-63
2023/10/30 07:18:12;;;;;;;20.33;6.78;;;13.70;99.90;;;14.11;100.00;99775.31;4823724;29;20054;-64
2023/10/30 07:20:43;;;;;;;20.73;6.60;;;13.90;99.90;;;13.74;99.96;99682.72;4823402;29;20054;-64
2023/10/30 07:23:12;;;;;;;21.77;6.90;;;14.00;99.90;;;14.56;99.35;99768.28;4823703;29;20046;-63
2023/10/30 07:25:40;;;;;;;18.55;5.97;;;14.20;99.90;;;14.72;97.82;99772.09;4823336;29;20066;-63
2023/10/30 07:28:09;;;;;;;19.13;6.20;;;14.50;99.90;;;14.81;97.32;99761.06;4823789;29;20051;-64
2023/10/30 07:30:37;;;;;;;22.08;5.90;;;14.60;99.90;;;14.96;96.55;99757.81;4823494;29;20121;-63
2023/10/30 07:33:06;;;;;;;19.50;5.68;;;14.70;99.90;;;15.03;95.26;99767.31;4823459;29;20082;-64
2023/10/30 07:35:36;;;;;;;22.52;6.00;;;14.80;99.90;;;14.48;94.89;99650.63;4807126;29;20058;-64
2023/10/30 07:38:06;;;;;;;19.27;5.80;;;14.90;99.90;;;15.20;93.82;99786.13;4823403;29;20065;-62
2023/10/30 07:40:34;;;;;;;20.43;6.27;;;15.00;99.90;;;15.23;93.12;99806.47;4823617;29;20050;-63
2023/10/30 07:43:03;;;;;;;17.98;5.20;;;15.00;99.90;;;15.10;92.87;99800.75;4823758;29;20046;-63
2023/10/30 07:45:31;;;;;;;24.05;6.28;;;14.90;99.90;;;15.04;93.15;99813.44;4823948;29;20145;-63
2023/10/30 07:48:00;;;;;;;13.90;5.85;;;14.80;99.90;;;14.91;93.49;99814.84;4823466;29;20099;-62
2023/10/30 07:50:28;;;;;;;16.63;5.63;;;14.70;99.90;;;14.82;94.02;99802.75;4813390;29;20050;-62
2023/10/30 07:52:57;;;;;;;16.83;5.72;;;14.60;99.90;;;14.77;94.70;99806.53;4823748;29;20088;-63
2023/10/30 07:55:27;;;;;;;18.88;5.43;;;14.50;99.90;;;14.66;95.32;99798.94;4823453;29;20413;-64
2023/10/30 07:57:55;;;;;;;21.38;5.85;;;14.40;99.90;;;14.61;95.95;99798.28;4814759;29;20103;-64
2023/10/30 08:00:24;;;;;;;16.88;5.30;;;14.30;99.90;;;14.59;96.47;99791.25;4823246;29;20074;-64
2023/10/30 08:02:53;;;;;;;14.15;5.18;;;14.30;99.90;;;14.52;97.09;99803.06;4823524;29;20054;-64
2023/10/30 08:05:22;;;;;;;20.48;6.47;;;14.20;99.90;;;14.46;97.82;99781.06;4823219;29;20489;-64
2023/10/30 08:07:51;;;;;;;18.63;6.05;;;14.20;99.90;;;14.51;97.84;99780.03;4823473;29;20046;-64
2023/10/30 08:10:19;;;;;;;28.48;6.10;;;14.20;99.90;;;14.48;98.53;99760.59;4826409;29;20092;-63
2023/10/30 08:12:49;;;;;;;18.20;5.65;;;14.30;99.90;;;14.53;98.57;99765.75;4826494;29;20082;-63
2023/10/30 08:15:18;;;;;;;26.00;6.47;;;14.20;99.90;;;14.53;98.79;99760.44;4826316;29;20062;-63
2023/10/30 08:17:46;;;;;;;18.90;5.78;;;14.20;99.90;;;14.56;99.01;99765.63;4826185;29;20410;-63
2023/10/30 08:20:15;;;;;;;18.75;6.50;;;14.30;99.90;;;14.55;99.08;99773.66;4826288;29;20042;-64
2023/10/30 08:22:44;;;;;;;17.88;5.72;;;14.30;99.90;;;14.52;99.17;99779.13;4826487;29;20054;-64
2023/10/30 08:25:12;;;;;;;21.80;5.88;;;14.30;99.90;;;14.54;99.21;99782.59;4826617;29;20043;-63
2023/10/30 08:27:41;;;;;;;18.15;6.10;;;14.20;99.90;;;14.52;99.61;99789.75;4826209;29;20054;-64
2023/10/30 08:30:12;;;;;;;15.63;5.60;;;14.20;99.90;;;14.48;99.60;99789.88;4826355;29;20054;-64
2023/10/30 08:32:41;;;;;;;20.48;5.60;;;14.20;99.90;;;14.42;99.65;99782.09;4826188;29;20050;-64
2023/10/30 08:35:10;;;;;;;19.60;5.47;;;14.20;99.90;;;14.44;100.00;99784.69;4826671;29;20145;-64
2023/10/30 08:37:38;;;;;;;20.58;6.03;;;14.20;99.90;;;14.34;100.00;99759.38;4826175;29;20051;-63
2023/10/30 08:40:09;;;;;;;18.00;5.38;;;14.30;99.90;;;14.36;100.00;99785.00;4825962;29;20054;-63
2023/10/30 08:42:37;;;;;;;14.90;5.13;;;14.10;99.90;;;14.14;100.00;99776.06;4825996;29;20126;-64
2023/10/30 08:45:08;;;;;;;15.38;5.60;;;14.10;99.90;;;14.38;100.00;99796.44;4826105;29;20054;-64
2023/10/30 08:47:38;;;;;;;;;;;14.10;99.90;;;14.32;100.00;99801.13;4826233;29;20145;-64
2023/10/30 08:50:09;;;;;;;17.33;5.78;;;14.10;99.90;;;14.30;100.00;99806.50;4826144;29;19928;-64
2023/10/30 08:52:38;;;;;;;18.20;6.05;;;14.10;99.90;;;14.26;100.00;99809.31;4826081;29;20042;-64
2023/10/30 08:55:07;;;;;;;18.15;6.07;;;14.00;99.90;;;14.24;100.00;99812.03;4825913;29;20054;-65
2023/10/30 08:57:36;;;;;;;21.30;6.40;;;14.00;99.90;;;14.24;100.00;99800.50;4826083;29;20388;-64
2023/10/30 09:00:07;;;;;;;14.02;5.40;;;14.00;99.90;;;14.18;100.00;99827.34;4811203;29;20574;-64
2023/10/30 09:02:35;;;;;;;22.75;6.20;;;13.90;99.90;;;14.20;100.00;99805.09;4825477;29;20144;-65
2023/10/30 09:05:06;;;;;;;20.33;5.90;;;13.90;99.90;;;14.22;100.00;99805.91;4825326;29;20042;-64
2023/10/30 09:07:36;;;;;;;19.23;5.68;;;14.00;99.90;;;14.25;100.00;99824.38;4825548;29;20394;-64
2023/10/30 09:10:05;;;;;;;19.17;5.38;;;14.00;99.90;;;14.27;100.00;99837.63;4825826;29;20050;-65
2023/10/30 09:12:35;;;;;;;17.58;5.30;;;14.00;99.90;;;14.19;100.00;99821.94;4825555;29;20042;-65
2023/10/30 09:15:08;;;;;;;16.58;4.80;;;14.00;99.90;;;14.17;100.00;99820.25;4825526;29;20091;-65
2023/10/30 09:17:39;;;;;;;18.90;6.13;;;13.90;99.90;;;14.10;100.00;99808.13;4811927;29;20059;-65
2023/10/30 09:20:12;;;;;;;15.85;5.53;;;13.90;99.90;;;14.13;100.00;99806.22;4824316;29;20077;-64
2023/10/30 09:22:40;;;;;;;21.75;6.03;;;13.90;99.90;;;14.12;100.00;99814.25;4825684;29;20077;-64
2023/10/30 09:25:09;;;;;;;23.40;5.40;;;13.90;99.90;;;14.22;100.00;99810.34;4825421;29;20493;-66
2023/10/30 09:27:38;;;;;;;20.65;5.93;;;14.00;99.90;;;14.25;100.00;99823.50;4826420;29;20085;-65
2023/10/30 09:30:08;;;;;;;19.50;5.70;;;14.00;99.90;;;14.23;100.00;99833.34;4825249;29;20078;-63
2023/10/30 09:32:36;;;;;;;14.25;5.03;;;14.00;99.90;;;14.22;100.00;99807.69;4825266;29;20055;-67
2023/10/30 09:35:05;;;;;;;19.45;5.60;;;14.00;99.90;;;14.16;100.00;99830.06;4809088;29;20569;-67
2023/10/30 09:37:37;;;;;;;25.00;5.57;;;13.90;99.90;;;14.18;100.00;99828.22;4820995;29;20539;-65
2023/10/30 09:40:08;;;;;;;20.75;5.43;;;13.90;99.90;;;14.17;100.00;99826.44;4821576;29;20133;-63
2023/10/30 09:42:36;;;;;;;22.05;5.78;;;14.00;99.90;;;14.09;100.00;99817.03;4825638;29;20057;-65
2023/10/30 09:45:07;;;;;;;18.95;5.13;;;13.90;99.90;;;14.17;100.00;99805.19;4824995;29;20061;-65
2023/10/30 09:47:35;;;;;;;17.10;5.55;;;14.00;99.90;;;14.21;100.00;99800.59;4813686;29;20497;-66
2023/10/30 09:50:06;;;;;;;18.63;5.80;;;14.00;99.90;;;14.25;100.00;99802.22;4825430;29;20393;-63
2023/10/30 09:52:37;;;;;;;18.88;5.78;;;14.00;99.90;;;14.29;100.00;99799.44;4824924;29;20046;-64
2023/10/30 09:55:11;;;;;;;15.98;5.35;;;14.00;99.90;;;14.22;100.00;99797.03;4814626;29;20058;-65
2023/10/30 09:57:40;;;;;;;17.85;6.00;;;14.00;99.90;;;14.34;100.00;99802.81;4808591;29;20465;-65
2023/10/30 10:00:13;;;;;;;21.83;6.40;;;14.10;99.90;;;14.41;100.00;99804.34;4824913;29;20053;-65
2023/10/30 10:02:42;;;;;;;22.85;7.15;;;14.10;99.90;;;14.44;100.00;99793.56;4825001;29;20069;-66
2023/10/30 10:05:12;;;;;;;20.80;6.32;;;14.20;99.90;;;14.42;100.00;99789.22;4808683;29;20053;-65
2023/10/30 10:07:42;;;;;;;21.57;6.57;;;14.20;99.90;;;14.48;100.00;99782.81;4825194;29;20058;-64
2023/10/30 10:10:12;;;;;;;22.60;6.43;;;14.20;99.90;;;14.59;100.00;99792.13;4824976;29;20292;-64
2023/10/30 10:12:40;;;;;;;24.58;6.93;;;14.30;99.90;;;14.61;100.00;99792.94;4824471;29;20058;-65
2023/10/30 10:15:09;;;;;;;24.25;6.38;;;14.40;99.90;;;14.65;100.00;99799.88;4824910;29;20054;-63
2023/10/30 10:17:42;;;;;;;21.52;5.72;;;14.40;99.90;;;14.64;100.00;99799.91;4824478;29;20111;-63